createdAt,value
2018-07-09T00:01:44.679Z,99.90
2018-07-09T00:04:13.412Z,99.90
2018-07-09T00:06:42.211Z,99.90
2018-07-09T00:09:10.965Z,99.90
2018-07-09T00:11:39.732Z,99.90
2018-07-09T00:14:08.476Z,99.90
2018-07-09T00:16:37.247Z,99.90
2018-07-09T00:19:05.994Z,99.90
2018-07-09T00:21:34.684Z,99.90
2018-07-09T00:24:03.419Z,99.90
2018-07-09T00:26:32.102Z,99.90
2018-07-09T00:29:00.841Z,99.90
2018-07-09T00:31:29.478Z,99.90
2018-07-09T00:33:58.087Z,99.90
2018-07-09T00:36:26.759Z,99.90
2018-07-09T00:38:55.443Z,99.90
2018-07-09T00:41:24.269Z,99.90
2018-07-09T00:43:53.127Z,99.90
2018-07-09T00:46:21.862Z,99.90
2018-07-09T00:48:50.586Z,99.90
2018-07-09T00:51:19.277Z,99.90
2018-07-09T00:53:47.962Z,99.90
2018-07-09T00:56:16.575Z,99.90
2018-07-09T00:58:45.370Z,99.90
2018-07-09T01:01:14.004Z,99.90
2018-07-09T01:03:42.710Z,99.90
2018-07-09T01:06:11.391Z,99.90
2018-07-09T01:08:40.155Z,99.90
2018-07-09T01:11:19.908Z,99.90
2018-07-09T01:13:48.595Z,99.90
2018-07-09T01:16:17.255Z,99.90
2018-07-09T01:18:45.959Z,99.90
2018-07-09T01:21:15.795Z,99.90
2018-07-09T01:23:44.503Z,99.90
2018-07-09T01:26:13.172Z,99.90
2018-07-09T01:28:42.658Z,99.90
2018-07-09T01:31:11.352Z,99.90
2018-07-09T01:33:40.035Z,99.90
2018-07-09T01:36:08.709Z,99.90
2018-07-09T01:38:37.410Z,99.90
2018-07-09T01:41:06.108Z,99.90
2018-07-09T01:43:34.769Z,99.90
2018-07-09T01:46:03.467Z,99.90
2018-07-09T01:48:32.212Z,99.90
2018-07-09T01:51:00.933Z,99.90
2018-07-09T01:53:29.654Z,99.90
2018-07-09T01:55:58.229Z,99.90
2018-07-09T01:58:26.845Z,99.90
2018-07-09T02:00:55.487Z,99.90
2018-07-09T02:03:24.155Z,99.90
2018-07-09T02:05:52.839Z,99.90
2018-07-09T02:08:22.020Z,99.90
2018-07-09T02:10:50.757Z,99.90
2018-07-09T02:13:19.401Z,99.90
2018-07-09T02:15:47.967Z,99.90
2018-07-09T02:18:16.670Z,99.90
2018-07-09T02:20:45.381Z,99.90
2018-07-09T02:23:14.093Z,99.90
2018-07-09T02:25:42.854Z,99.90
2018-07-09T02:28:11.573Z,99.90
2018-07-09T02:30:40.239Z,99.90
2018-07-09T02:33:08.874Z,99.90
2018-07-09T02:35:37.514Z,99.90
2018-07-09T02:38:06.482Z,99.90
2018-07-09T02:40:35.174Z,99.90
2018-07-09T02:43:03.944Z,99.90
2018-07-09T02:45:32.615Z,99.90
2018-07-09T02:48:01.347Z,99.90
2018-07-09T02:50:44.289Z,99.90
2018-07-09T02:53:13.066Z,99.90
2018-07-09T02:55:41.613Z,99.90
2018-07-09T02:58:10.153Z,99.90
2018-07-09T03:00:38.864Z,99.90
2018-07-09T03:03:07.612Z,99.90
2018-07-09T03:05:36.194Z,99.90
2018-07-09T03:08:04.850Z,99.90
2018-07-09T03:10:33.495Z,99.90
2018-07-09T03:13:02.169Z,99.90
2018-07-09T03:15:30.982Z,99.90
2018-07-09T03:17:59.688Z,99.90
2018-07-09T03:20:28.401Z,99.90
2018-07-09T03:22:57.060Z,99.90
2018-07-09T03:25:25.767Z,99.90
2018-07-09T03:27:54.420Z,99.90
2018-07-09T03:30:23.090Z,99.90
2018-07-09T03:32:51.801Z,99.90
2018-07-09T03:35:20.495Z,99.90
2018-07-09T03:37:49.272Z,99.90
2018-07-09T03:40:17.959Z,99.90
2018-07-09T03:42:46.639Z,99.90
2018-07-09T03:45:15.337Z,99.90
2018-07-09T03:47:44.099Z,99.90
2018-07-09T03:50:12.782Z,99.90
2018-07-09T03:52:41.584Z,99.90
2018-07-09T03:55:10.303Z,99.90
2018-07-09T03:57:39.056Z,99.90
2018-07-09T04:00:07.755Z,99.90
2018-07-09T04:05:04.795Z,99.90
2018-07-09T04:07:33.503Z,99.90
2018-07-09T04:12:30.474Z,99.90
2018-07-09T04:14:59.113Z,99.90
2018-07-09T04:17:27.733Z,99.90
2018-07-09T04:19:56.411Z,99.90
2018-07-09T04:22:25.003Z,99.90
2018-07-09T04:24:53.758Z,99.90
2018-07-09T04:27:22.378Z,99.90
2018-07-09T04:29:51.113Z,99.90
2018-07-09T04:32:19.775Z,99.90
2018-07-09T04:34:48.437Z,99.90
2018-07-09T04:40:18.321Z,99.90
2018-07-09T04:42:46.986Z,99.90
2018-07-09T04:45:15.708Z,99.90
2018-07-09T04:47:44.337Z,99.90
2018-07-09T04:50:13.101Z,99.90
2018-07-09T04:52:41.728Z,99.90
2018-07-09T04:55:10.430Z,99.90
2018-07-09T04:57:39.047Z,99.90
2018-07-09T05:00:07.650Z,99.90
2018-07-09T05:02:36.322Z,99.90
2018-07-09T05:05:04.983Z,99.90
2018-07-09T05:07:33.619Z,99.90
2018-07-09T05:10:02.278Z,99.90
2018-07-09T05:14:59.344Z,99.90
2018-07-09T05:17:27.958Z,99.90
2018-07-09T05:19:56.683Z,99.90
2018-07-09T05:22:25.368Z,99.90
2018-07-09T05:24:53.979Z,99.90
2018-07-09T05:27:22.651Z,99.90
2018-07-09T05:29:51.296Z,99.90
2018-07-09T05:32:20.001Z,99.90
2018-07-09T05:34:48.702Z,99.90
2018-07-09T05:37:17.414Z,99.90
2018-07-09T05:39:46.086Z,99.90
2018-07-09T05:42:14.855Z,99.90
2018-07-09T05:44:43.528Z,99.90
2018-07-09T05:47:12.243Z,99.90
2018-07-09T05:49:41.029Z,99.90
2018-07-09T05:52:09.793Z,99.90
2018-07-09T05:54:38.457Z,99.90
2018-07-09T05:57:07.183Z,99.90
2018-07-09T05:59:35.862Z,99.90
2018-07-09T06:02:04.486Z,99.90
2018-07-09T06:04:33.279Z,99.90
2018-07-09T06:07:02.004Z,99.90
2018-07-09T06:09:30.702Z,99.90
2018-07-09T06:11:59.396Z,99.90
2018-07-09T06:14:28.126Z,99.90
2018-07-09T06:16:56.748Z,99.90
2018-07-09T06:19:25.475Z,99.90
2018-07-09T06:21:54.095Z,99.90
2018-07-09T06:24:22.699Z,99.90
2018-07-09T06:26:51.558Z,99.90
2018-07-09T06:29:20.315Z,99.90
2018-07-09T06:34:46.194Z,99.90
2018-07-09T06:37:14.914Z,99.90
2018-07-09T06:39:43.637Z,99.90
2018-07-09T06:42:12.288Z,99.90
2018-07-09T06:44:40.925Z,99.90
2018-07-09T06:47:09.667Z,99.90
2018-07-09T06:49:38.382Z,99.90
2018-07-09T06:52:07.176Z,99.90
2018-07-09T06:54:35.819Z,99.90
2018-07-09T06:57:04.567Z,99.90
2018-07-09T06:59:33.184Z,99.90
2018-07-09T07:02:01.863Z,99.90
2018-07-09T07:04:30.523Z,99.90
2018-07-09T07:06:59.182Z,99.90
2018-07-09T07:09:27.927Z,99.90
2018-07-09T07:11:56.678Z,99.90
2018-07-09T07:14:25.330Z,99.90
2018-07-09T07:16:53.919Z,99.90
2018-07-09T07:19:22.660Z,99.90
2018-07-09T07:21:51.285Z,99.90
2018-07-09T07:24:21.545Z,99.90
2018-07-09T07:26:50.299Z,99.90
2018-07-09T07:29:18.946Z,99.90
2018-07-09T07:31:47.593Z,99.90
2018-07-09T07:34:16.197Z,95.50
2018-07-09T07:36:44.843Z,92.20
2018-07-09T07:39:13.528Z,92.90
2018-07-09T07:41:42.124Z,88.80
2018-07-09T07:44:10.866Z,81.90
2018-07-09T07:46:39.536Z,74.50
2018-07-09T07:49:08.216Z,66.40
2018-07-09T07:51:36.972Z,57.80
2018-07-09T07:54:05.730Z,58.30
2018-07-09T07:56:34.404Z,56.90
2018-07-09T07:59:03.101Z,54.60
2018-07-09T08:01:31.803Z,51.20
2018-07-09T08:04:00.586Z,50.00
2018-07-09T08:06:29.326Z,47.80
2018-07-09T08:08:57.978Z,47.90
2018-07-09T08:13:54.834Z,47.30
2018-07-09T08:18:51.787Z,45.00
2018-07-09T08:21:20.393Z,44.30
2018-07-09T08:26:17.327Z,44.50
2018-07-09T08:28:45.936Z,44.10
2018-07-09T08:31:14.563Z,48.00
2018-07-09T08:33:43.155Z,44.50
2018-07-09T08:36:11.852Z,43.10
2018-07-09T08:38:40.459Z,45.90
2018-07-09T08:41:09.051Z,43.50
2018-07-09T08:43:37.675Z,43.10
2018-07-09T08:46:06.374Z,42.80
2018-07-09T08:48:35.058Z,42.10
2018-07-09T08:51:03.763Z,44.10
2018-07-09T08:53:32.579Z,45.60
2018-07-09T08:56:01.187Z,41.80
2018-07-09T08:58:29.882Z,45.00
2018-07-09T09:00:58.488Z,43.70
2018-07-09T09:03:27.111Z,43.50
2018-07-09T09:05:55.706Z,42.80
2018-07-09T09:08:24.393Z,44.70
2018-07-09T09:10:52.990Z,44.60
2018-07-09T09:13:21.670Z,45.40
2018-07-09T09:15:50.274Z,45.70
2018-07-09T09:18:18.882Z,46.10
2018-07-09T09:20:47.488Z,46.20
2018-07-09T09:23:16.094Z,47.00
2018-07-09T09:25:44.836Z,47.10
2018-07-09T09:28:13.534Z,46.00
2018-07-09T09:30:42.194Z,42.90
2018-07-09T09:33:10.835Z,42.90
2018-07-09T09:35:39.538Z,47.00
2018-07-09T09:38:08.221Z,48.00
2018-07-09T09:40:36.819Z,48.30
2018-07-09T09:43:05.602Z,46.00
2018-07-09T09:45:34.291Z,45.40
2018-07-09T09:48:02.918Z,47.30
2018-07-09T09:50:31.498Z,46.30
2018-07-09T09:53:00.105Z,46.20
2018-07-09T09:55:28.667Z,46.80
2018-07-09T09:57:57.283Z,45.50
2018-07-09T10:00:31.269Z,48.90
2018-07-09T10:02:59.878Z,45.60
2018-07-09T10:07:56.926Z,43.90
2018-07-09T10:10:25.499Z,45.90
2018-07-09T10:12:54.113Z,45.70
2018-07-09T10:15:22.682Z,43.90
2018-07-09T10:17:51.266Z,46.10
2018-07-09T10:20:36.983Z,46.70
2018-07-09T10:23:05.731Z,47.30
2018-07-09T10:25:34.221Z,45.80
2018-07-09T10:30:31.232Z,46.60
2018-07-09T10:32:59.797Z,46.10
2018-07-09T10:35:28.414Z,45.40
2018-07-09T10:37:56.961Z,48.80
2018-07-09T10:40:25.612Z,48.00
2018-07-09T10:42:54.218Z,44.40
2018-07-09T10:45:22.922Z,44.90
2018-07-09T10:47:51.494Z,43.80
2018-07-09T10:50:20.151Z,42.90
2018-07-09T10:52:48.747Z,44.90
2018-07-09T10:55:17.419Z,45.20
2018-07-09T10:57:45.966Z,49.40
2018-07-09T11:00:14.649Z,47.80
2018-07-09T11:02:43.254Z,48.40
2018-07-09T11:05:11.834Z,47.10
2018-07-09T11:07:40.454Z,46.90
2018-07-09T11:10:09.138Z,45.30
2018-07-09T11:12:37.810Z,44.10
2018-07-09T11:15:06.424Z,46.80
2018-07-09T11:17:34.994Z,43.60
2018-07-09T11:20:03.697Z,46.10
2018-07-09T11:22:32.453Z,48.70
2018-07-09T11:25:01.075Z,50.60
2018-07-09T11:27:29.764Z,52.60
2018-07-09T11:29:58.460Z,53.40
2018-07-09T11:32:27.543Z,52.10
2018-07-09T11:34:56.214Z,53.10
2018-07-09T11:37:24.859Z,54.80
2018-07-09T11:39:53.545Z,53.20
2018-07-09T11:42:22.190Z,55.10
2018-07-09T11:44:50.968Z,50.80
2018-07-09T11:47:19.604Z,48.80
2018-07-09T11:49:48.204Z,47.20
2018-07-09T11:52:16.860Z,47.90
2018-07-09T11:54:45.473Z,45.60
2018-07-09T11:57:14.066Z,47.20
2018-07-09T11:59:42.690Z,44.90
2018-07-09T12:02:11.292Z,45.30
2018-07-09T12:04:39.958Z,46.20
2018-07-09T12:07:08.591Z,45.90
2018-07-09T12:09:37.303Z,44.70
2018-07-09T12:12:06.390Z,45.10
2018-07-09T12:14:35.287Z,47.60
2018-07-09T12:17:03.977Z,49.40
2018-07-09T12:19:32.608Z,51.50
2018-07-09T12:22:01.352Z,53.20
2018-07-09T12:24:30.052Z,54.50
2018-07-09T12:26:58.692Z,55.40
2018-07-09T12:29:33.843Z,54.60
2018-07-09T12:32:02.470Z,51.60
2018-07-09T12:34:31.054Z,48.40
2018-07-09T12:36:59.635Z,44.20
2018-07-09T12:39:28.229Z,45.80
2018-07-09T12:41:56.841Z,45.10
2018-07-09T12:44:25.536Z,48.90
2018-07-09T12:46:54.192Z,44.50
2018-07-09T12:49:22.781Z,44.20
2018-07-09T12:51:51.384Z,43.70
2018-07-09T12:54:19.946Z,46.40
2018-07-09T12:56:48.497Z,45.30
2018-07-09T12:59:17.121Z,49.70
2018-07-09T13:01:45.865Z,51.50
2018-07-09T13:04:19.329Z,48.60
2018-07-09T13:06:47.986Z,48.50
2018-07-09T13:09:16.758Z,43.50
2018-07-09T13:11:45.327Z,46.90
2018-07-09T13:14:13.942Z,46.70
2018-07-09T13:16:42.630Z,48.20
2018-07-09T13:19:11.254Z,50.20
2018-07-09T13:21:39.881Z,50.20
2018-07-09T13:24:08.529Z,50.60
2018-07-09T13:26:37.163Z,46.40
2018-07-09T13:29:05.847Z,47.60
2018-07-09T13:31:34.531Z,46.50
2018-07-09T13:34:03.381Z,44.80
2018-07-09T13:36:31.974Z,42.80
2018-07-09T13:39:00.570Z,46.10
2018-07-09T13:41:29.237Z,48.00
2018-07-09T13:43:57.905Z,47.30
2018-07-09T13:46:26.599Z,45.90
2018-07-09T13:48:55.277Z,45.30
2018-07-09T13:51:23.890Z,46.70
2018-07-09T13:53:52.516Z,46.80
2018-07-09T13:56:23.242Z,45.40
2018-07-09T14:01:20.177Z,44.80
2018-07-09T14:03:48.937Z,44.90
2018-07-09T14:06:17.532Z,44.70
2018-07-09T14:08:56.529Z,47.60
2018-07-09T14:11:43.788Z,47.40
2018-07-09T14:14:12.555Z,47.30
2018-07-09T14:16:41.189Z,46.60
2018-07-09T14:19:22.101Z,47.70
2018-07-09T14:21:57.325Z,50.30
2018-07-09T14:24:26.121Z,49.80
2018-07-09T14:26:54.795Z,50.70
2018-07-09T14:29:24.456Z,52.00
2018-07-09T14:31:55.271Z,51.30
2018-07-09T14:34:24.980Z,48.80
2018-07-09T14:36:58.948Z,48.90
2018-07-09T14:42:20.177Z,49.50
2018-07-09T14:44:48.882Z,51.90
2018-07-09T14:47:17.587Z,51.30
2018-07-09T14:49:46.331Z,49.90
2018-07-09T14:52:15.180Z,48.90
2018-07-09T14:54:48.318Z,48.70
2018-07-09T14:57:17.407Z,49.50
2018-07-09T14:59:46.107Z,50.40
2018-07-09T15:02:15.745Z,51.60
2018-07-09T15:04:44.704Z,47.60
2018-07-09T15:07:13.411Z,50.00
2018-07-09T15:09:42.099Z,49.30
2018-07-09T15:12:10.763Z,50.70
2018-07-09T15:14:39.554Z,51.40
2018-07-09T15:17:08.620Z,47.90
2018-07-09T15:19:37.289Z,50.00
2018-07-09T15:22:06.030Z,47.00
2018-07-09T15:24:34.990Z,46.80
2018-07-09T15:27:03.599Z,47.10
2018-07-09T15:29:32.275Z,46.80
2018-07-09T15:32:12.079Z,49.30
2018-07-09T15:34:40.800Z,48.40
2018-07-09T15:39:37.773Z,47.90
2018-07-09T15:42:06.423Z,49.40
2018-07-09T15:44:35.161Z,48.50
2018-07-09T15:47:03.933Z,47.10
2018-07-09T15:49:32.806Z,47.10
2018-07-09T15:52:01.435Z,47.50
2018-07-09T15:54:30.100Z,47.90
2018-07-09T15:56:58.753Z,48.60
2018-07-09T15:59:27.513Z,47.10
2018-07-09T16:01:56.260Z,46.90
2018-07-09T16:04:24.918Z,47.20
2018-07-09T16:06:53.650Z,45.90
2018-07-09T16:09:22.362Z,46.50
2018-07-09T16:11:51.010Z,47.00
2018-07-09T16:14:19.714Z,45.40
2018-07-09T16:16:48.482Z,45.10
2018-07-09T16:19:17.273Z,46.60
2018-07-09T16:21:45.886Z,47.60
2018-07-09T16:24:14.589Z,49.00
2018-07-09T16:26:43.222Z,50.10
2018-07-09T16:29:11.966Z,50.20
2018-07-09T16:31:40.405Z,49.80
2018-07-09T16:34:09.321Z,50.20
2018-07-09T16:36:38.075Z,49.50
2018-07-09T16:39:07.608Z,51.00
2018-07-09T16:41:36.466Z,50.00
2018-07-09T16:44:05.419Z,49.00
2018-07-09T16:46:34.107Z,49.10
2018-07-09T16:51:56.725Z,50.30
2018-07-09T16:54:25.338Z,50.20
2018-07-09T16:56:54.079Z,50.30
2018-07-09T16:59:23.176Z,51.80
2018-07-09T17:01:57.563Z,52.90
2018-07-09T17:04:26.335Z,52.70
2018-07-09T17:06:54.966Z,53.30
2018-07-09T17:09:23.667Z,53.60
2018-07-09T17:11:52.369Z,54.20
2018-07-09T17:14:21.119Z,53.80
2018-07-09T17:16:49.811Z,54.50
2018-07-09T17:19:18.479Z,54.80
2018-07-09T17:24:15.515Z,55.50
2018-07-09T17:26:44.178Z,55.90
2018-07-09T17:29:12.758Z,55.20
2018-07-09T17:31:41.485Z,55.40
2018-07-09T17:36:38.374Z,55.00
2018-07-09T17:39:07.039Z,55.40
2018-07-09T17:41:35.738Z,55.90
2018-07-09T17:44:04.503Z,56.80
2018-07-09T17:46:33.135Z,56.60
2018-07-09T17:49:02.918Z,55.40
2018-07-09T17:53:59.995Z,56.40
2018-07-09T17:56:34.259Z,55.70
2018-07-09T17:59:03.072Z,56.60
2018-07-09T18:01:31.840Z,55.60
2018-07-09T18:04:07.048Z,55.90
2018-07-09T18:06:35.862Z,55.90
2018-07-09T18:09:09.299Z,56.80
2018-07-09T18:11:38.063Z,57.00
2018-07-09T18:14:24.184Z,57.30
2018-07-09T18:16:52.903Z,56.80
2018-07-09T18:19:21.561Z,56.80
2018-07-09T18:21:50.283Z,57.00
2018-07-09T18:24:18.868Z,57.10
2018-07-09T18:26:47.722Z,57.80
2018-07-09T18:29:19.869Z,59.00
2018-07-09T18:31:53.921Z,58.60
2018-07-09T18:34:23.850Z,59.70
2018-07-09T18:36:53.045Z,59.80
2018-07-09T18:39:38.054Z,60.50
2018-07-09T18:42:06.904Z,60.50
2018-07-09T18:44:35.606Z,61.50
2018-07-09T18:47:06.642Z,61.00
2018-07-09T18:49:45.746Z,59.80
2018-07-09T18:52:14.469Z,61.40
2018-07-09T18:54:43.158Z,60.40
2018-07-09T18:57:11.907Z,61.70
2018-07-09T18:59:40.676Z,62.10
2018-07-09T19:02:09.340Z,61.80
2018-07-09T19:04:38.236Z,63.10
2018-07-09T19:07:08.355Z,65.00
2018-07-09T19:09:37.708Z,63.50
2018-07-09T19:12:07.663Z,64.00
2018-07-09T19:14:38.349Z,64.20
2018-07-09T19:17:19.135Z,65.70
2018-07-09T19:19:51.420Z,69.40
2018-07-09T19:22:29.783Z,71.40
2018-07-09T19:24:57.187Z,73.10
2018-07-09T19:27:24.618Z,72.70
2018-07-09T19:29:52.015Z,74.00
2018-07-09T19:32:19.490Z,74.40
2018-07-09T19:34:46.970Z,75.20
2018-07-09T19:37:14.429Z,76.50
2018-07-09T19:39:41.758Z,77.80
2018-07-09T19:42:14.966Z,78.00
2018-07-09T19:44:42.332Z,79.60
2018-07-09T19:47:09.791Z,79.80
2018-07-09T19:49:37.206Z,80.50
2018-07-09T19:52:04.674Z,82.00
2018-07-09T19:54:32.128Z,82.80
2018-07-09T19:56:59.518Z,84.60
2018-07-09T19:59:26.922Z,85.00
2018-07-09T20:01:54.356Z,86.10
2018-07-09T20:04:21.742Z,86.50
2018-07-09T20:09:21.979Z,89.90
2018-07-09T20:11:54.680Z,91.10
2018-07-09T20:14:27.524Z,92.10
2018-07-09T20:17:00.073Z,92.20
2018-07-09T20:19:27.462Z,92.90
2018-07-09T20:21:54.826Z,92.80
2018-07-09T20:24:22.230Z,93.70
2018-07-09T20:26:49.668Z,93.50
2018-07-09T20:29:17.220Z,93.30
2018-07-09T20:31:44.630Z,93.70
2018-07-09T20:34:12.066Z,92.70
2018-07-09T20:36:39.475Z,92.40
2018-07-09T20:39:07.591Z,92.50
2018-07-09T20:41:35.163Z,93.20
2018-07-09T20:44:03.124Z,89.80
2018-07-09T20:46:30.943Z,88.60
2018-07-09T20:48:58.481Z,88.20
2018-07-09T20:51:25.954Z,89.40
2018-07-09T20:53:53.357Z,87.80
2018-07-09T20:56:20.843Z,89.10
2018-07-09T20:58:48.229Z,89.50
2018-07-09T21:01:15.569Z,90.80
2018-07-09T21:03:42.942Z,91.20
2018-07-09T21:06:10.377Z,91.80
2018-07-09T21:08:37.757Z,93.20
2018-07-09T21:11:05.129Z,92.90
2018-07-09T21:13:32.957Z,93.40
2018-07-09T21:16:00.560Z,96.40
2018-07-09T21:18:27.726Z,97.30
2018-07-09T21:20:55.114Z,98.10
2018-07-09T21:23:22.522Z,98.40
2018-07-09T21:25:49.946Z,98.50
2018-07-09T21:30:44.968Z,99.90
2018-07-09T21:33:12.330Z,99.90
2018-07-09T21:35:39.823Z,99.90
2018-07-09T21:38:07.279Z,99.90
2018-07-09T21:40:34.709Z,99.90
2018-07-09T21:43:02.038Z,99.90
2018-07-09T21:45:29.485Z,99.90
2018-07-09T21:47:59.211Z,99.90
2018-07-09T21:50:24.391Z,99.90
2018-07-09T21:52:51.765Z,99.90
2018-07-09T21:55:19.171Z,99.90
2018-07-09T21:57:46.610Z,99.90
2018-07-09T22:00:13.976Z,99.90
2018-07-09T22:02:41.443Z,99.90
2018-07-09T22:05:08.796Z,99.90
2018-07-09T22:07:36.210Z,99.90
2018-07-09T22:10:03.668Z,99.90
2018-07-09T22:12:31.053Z,99.90
2018-07-09T22:14:58.424Z,99.90
2018-07-09T22:17:25.833Z,99.90
2018-07-09T22:19:53.258Z,99.90
2018-07-09T22:22:20.675Z,99.90
2018-07-09T22:24:48.139Z,99.90
2018-07-09T22:27:15.462Z,99.90
2018-07-09T22:29:42.895Z,99.90
2018-07-09T22:32:11.602Z,99.90
2018-07-09T22:34:40.271Z,99.90
2018-07-09T22:37:09.854Z,99.90
2018-07-09T22:39:38.587Z,99.90
2018-07-09T22:42:07.277Z,99.90
2018-07-09T22:44:35.931Z,99.90
2018-07-09T22:47:04.585Z,99.90
2018-07-09T22:49:33.206Z,99.90
2018-07-09T22:52:01.878Z,99.90
2018-07-09T22:56:58.780Z,99.90
2018-07-09T22:59:27.441Z,99.90
2018-07-09T23:01:56.123Z,99.90
2018-07-09T23:04:24.791Z,99.90
2018-07-09T23:06:53.462Z,99.90
2018-07-09T23:11:37.483Z,99.90
2018-07-09T23:16:47.143Z,99.90
2018-07-09T23:20:34.201Z,99.90
2018-07-09T23:23:01.604Z,99.90
2018-07-09T23:25:29.008Z,99.90
2018-07-09T23:27:56.424Z,99.90
2018-07-09T23:30:23.851Z,99.90
2018-07-09T23:32:51.254Z,99.90
2018-07-09T23:35:18.671Z,99.90
2018-07-09T23:37:46.084Z,99.90
2018-07-09T23:40:13.486Z,99.90
2018-07-09T23:42:40.899Z,99.90
2018-07-09T23:45:08.265Z,99.90
2018-07-09T23:47:35.665Z,99.90
2018-07-09T23:50:03.099Z,99.90
2018-07-09T23:52:30.470Z,99.90
2018-07-09T23:54:57.833Z,99.90
2018-07-09T23:59:48.250Z,99.90
